Time;durP1;ratioP1;P1;durP2;ratioP2;P2;SDS_P1;SDS_P2;PMS_P1;PMS_P2;Temp;Humidity;BMP_temperature;BMP_pressure;BME280_temperature;BME280_humidity;BME280_pressure;Samples;Min_cycle;Max_cycle;Signal;HPM_P1;HPM_P2
2023/08/04 00:00:58;;;;;;;1.42;0.80;;;;;;;;;;5055388;28;20184;-48
2023/08/04 00:03:23;;;;;;;1.00;0.65;;;;;;;;;;5055195;28;20270;-48
2023/08/04 00:05:49;;;;;;;1.15;0.70;;;;;;;;;;5049863;28;20188;-48
2023/08/04 00:08:15;;;;;;;1.63;0.93;;;;;;;;;;5053409;28;20183;-48
2023/08/04 00:10:41;;;;;;;0.65;0.60;;;;;;;;;;5051822;28;20237;-48
2023/08/04 00:13:07;;;;;;;2.15;0.82;;;;;;;;;;5042313;28;20219;-48
2023/08/04 00:15:33;;;;;;;2.45;0.73;;;;;;;;;;5055786;28;20202;-48
2023/08/04 00:17:59;;;;;;;1.30;0.93;;;;;;;;;;5053567;28;20217;-48
2023/08/04 00:20:25;;;;;;;0.88;0.60;;;;;;;;;;5054967;28;20563;-48
2023/08/04 00:22:51;;;;;;;0.90;0.80;;;;;;;;;;5054484;28;20473;-48
2023/08/04 00:25:17;;;;;;;1.08;0.80;;;;;;;;;;5046527;28;20184;-48
2023/08/04 00:27:43;;;;;;;0.70;0.70;;;;;;;;;;5055282;28;20270;-48
2023/08/04 00:30:10;;;;;;;1.25;0.68;;;;;;;;;;5053201;28;20214;-48
2023/08/04 00:32:36;;;;;;;0.93;0.70;;;;;;;;;;5043968;28;20191;-48
2023/08/04 00:35:05;;;;;;;1.33;0.75;;;;;;;;;;5050821;28;20509;-48
2023/08/04 00:37:32;;;;;;;0.60;0.60;;;;;;;;;;5054984;28;20538;-48
2023/08/04 00:39:58;;;;;;;1.95;0.60;;;;;;;;;;5054838;28;20241;-48
2023/08/04 00:42:24;;;;;;;1.55;0.80;;;;;;;;;;5051252;28;20547;-48
2023/08/04 00:44:50;;;;;;;1.05;0.80;;;;;;;;;;5054114;28;20229;-48
2023/08/04 00:47:16;;;;;;;1.00;0.50;;;;;;;;;;5051937;28;20187;-48
2023/08/04 00:49:43;;;;;;;0.75;0.65;;;;;;;;;;5038590;28;20183;-48
2023/08/04 00:52:09;;;;;;;1.67;0.88;;;;;;;;;;5054067;28;20467;-48
2023/08/04 00:54:36;;;;;;;1.10;0.60;;;;;;;;;;5049450;28;20210;-48
2023/08/04 00:57:03;;;;;;;0.68;0.50;;;;;;;;;;5049482;28;20204;-48
2023/08/04 00:59:29;;;;;;;3.10;1.20;;;;;;;;;;5053953;28;20186;-48
2023/08/04 01:01:55;;;;;;;1.20;0.70;;;;;;;;;;5039252;28;20579;-47
2023/08/04 01:04:21;;;;;;;0.77;0.70;;;;;;;;;;5044026;28;20187;-47
2023/08/04 01:06:56;;;;;;;0.63;0.63;;;;;;;;;;5040556;28;20180;-47
2023/08/04 01:09:22;;;;;;;0.85;0.80;;;;;;;;;;5050030;28;20591;-47
2023/08/04 01:11:52;;;;;;;0.80;0.70;;;;;;;;;;5047651;28;20195;-48
2023/08/04 01:14:18;;;;;;;0.88;0.60;;;;;;;;;;5047060;28;20193;-48
2023/08/04 01:16:44;;;;;;;1.02;0.82;;;;;;;;;;5037132;28;20283;-48
2023/08/04 01:19:10;;;;;;;1.42;0.70;;;;;;;;;;5035893;28;20262;-48
2023/08/04 01:21:43;;;;;;;0.60;0.60;;;;;;;;;;5052998;28;20845;-48
2023/08/04 01:24:10;;;;;;;1.10;0.85;;;;;;;;;;5040067;28;20187;-47
2023/08/04 01:26:45;;;;;;;0.90;0.65;;;;;;;;;;5054350;28;20265;-47
2023/08/04 01:29:11;;;;;;;0.70;0.70;;;;;;;;;;5054030;28;20185;-47
2023/08/04 01:31:37;;;;;;;0.95;0.70;;;;;;;;;;5048685;28;20203;-47
2023/08/04 01:34:03;;;;;;;1.70;0.73;;;;;;;;;;5049942;28;20193;-47
2023/08/04 01:36:29;;;;;;;0.90;0.68;;;;;;;;;;5052757;28;20293;-47
2023/08/04 01:38:56;;;;;;;1.83;0.70;;;;;;;;;;5048552;28;20266;-47
2023/08/04 01:41:22;;;;;;;0.63;0.60;;;;;;;;;;5042132;28;20225;-47
2023/08/04 01:43:48;;;;;;;1.52;0.80;;;;;;;;;;5045556;28;20179;-47
2023/08/04 01:46:14;;;;;;;2.05;0.47;;;;;;;;;;5054100;28;20183;-47
2023/08/04 01:48:40;;;;;;;0.65;0.50;;;;;;;;;;5053551;28;20546;-47
2023/08/04 01:51:07;;;;;;;1.15;0.60;;;;;;;;;;5051305;28;20193;-47
2023/08/04 01:53:33;;;;;;;0.82;0.60;;;;;;;;;;5053214;28;20202;-47
2023/08/04 01:55:59;;;;;;;0.80;0.50;;;;;;;;;;5046613;28;20436;-47
2023/08/04 01:58:25;;;;;;;2.08;0.70;;;;;;;;;;5038125;28;20193;-48
2023/08/04 02:00:51;;;;;;;1.70;0.52;;;;;;;;;;5044089;28;20185;-47
2023/08/04 02:03:17;;;;;;;1.02;0.80;;;;;;;;;;5053422;28;20268;-47
2023/08/04 02:05:48;;;;;;;2.67;0.70;;;;;;;;;;5048731;28;20207;-47
2023/08/04 02:08:14;;;;;;;1.67;0.80;;;;;;;;;;5038242;28;20610;-47
2023/08/04 02:10:46;;;;;;;0.93;0.55;;;;;;;;;;5053632;28;20302;-47
2023/08/04 02:13:12;;;;;;;0.52;0.52;;;;;;;;;;5054295;28;20187;-47
2023/08/04 02:15:38;;;;;;;0.70;0.70;;;;;;;;;;5053869;28;20174;-47
2023/08/04 02:18:04;;;;;;;1.02;0.70;;;;;;;;;;5043175;28;20182;-48
2023/08/04 02:20:30;;;;;;;0.68;0.60;;;;;;;;;;5051675;28;20262;-47
2023/08/04 02:22:56;;;;;;;1.08;0.70;;;;;;;;;;5053468;28;20538;-47
2023/08/04 02:25:22;;;;;;;1.50;0.68;;;;;;;;;;5053674;28;20554;-47
2023/08/04 02:27:48;;;;;;;0.50;0.50;;;;;;;;;;5053492;28;20175;-47
2023/08/04 02:30:14;;;;;;;1.35;0.80;;;;;;;;;;5053804;28;20201;-48
2023/08/04 02:32:40;;;;;;;0.50;0.50;;;;;;;;;;5046964;28;20183;-47
2023/08/04 02:35:06;;;;;;;0.60;0.60;;;;;;;;;;5057376;28;20180;-47
2023/08/04 02:37:32;;;;;;;3.47;0.80;;;;;;;;;;5056531;28;20486;-47
2023/08/04 02:39:58;;;;;;;0.98;0.60;;;;;;;;;;5057029;28;20183;-47
2023/08/04 02:42:24;;;;;;;0.85;0.65;;;;;;;;;;5056812;28;20232;-47
2023/08/04 02:44:56;;;;;;;1.92;0.70;;;;;;;;;;5055015;28;20199;-47
2023/08/04 02:47:22;;;;;;;1.38;0.73;;;;;;;;;;5048126;28;20210;-47
2023/08/04 02:49:48;;;;;;;1.27;0.70;;;;;;;;;;5056668;28;20183;-47
2023/08/04 02:52:16;;;;;;;1.90;0.60;;;;;;;;;;5056168;28;20276;-47
2023/08/04 02:54:42;;;;;;;0.93;0.70;;;;;;;;;;5056955;28;20190;-47
2023/08/04 02:57:08;;;;;;;2.13;0.73;;;;;;;;;;5056834;28;20266;-47
2023/08/04 02:59:34;;;;;;;1.15;0.75;;;;;;;;;;5050750;28;20180;-46
2023/08/04 03:02:00;;;;;;;1.40;0.70;;;;;;;;;;5055937;28;20197;-46
2023/08/04 03:04:26;;;;;;;0.88;0.75;;;;;;;;;;5053936;28;20187;-47
2023/08/04 03:06:52;;;;;;;1.20;0.70;;;;;;;;;;5056049;28;20179;-47
2023/08/04 03:09:17;;;;;;;2.47;0.70;;;;;;;;;;5052783;28;20260;-47
2023/08/04 03:11:43;;;;;;;0.95;0.75;;;;;;;;;;5038625;28;20198;-47
2023/08/04 03:14:09;;;;;;;1.05;0.65;;;;;;;;;;5056838;28;20253;-47
2023/08/04 03:16:35;;;;;;;0.95;0.60;;;;;;;;;;5057077;28;20256;-47
2023/08/04 03:19:01;;;;;;;1.05;0.70;;;;;;;;;;5056667;28;20186;-47
2023/08/04 03:21:27;;;;;;;1.02;0.80;;;;;;;;;;5045372;28;20203;-47
2023/08/04 03:23:53;;;;;;;1.02;0.70;;;;;;;;;;5055789;28;20229;-47
2023/08/04 03:26:19;;;;;;;1.98;0.98;;;;;;;;;;5056893;28;20197;-47
2023/08/04 03:28:45;;;;;;;2.50;0.70;;;;;;;;;;5055806;28;20194;-49
2023/08/04 03:31:11;;;;;;;1.38;0.52;;;;;;;;;;5055375;28;20194;-48
2023/08/04 03:33:37;;;;;;;0.55;0.40;;;;;;;;;;5056563;28;20459;-47
2023/08/04 03:36:03;;;;;;;1.20;0.80;;;;;;;;;;5056634;28;20565;-47
2023/08/04 03:38:29;;;;;;;0.60;0.50;;;;;;;;;;5054593;28;20175;-47
2023/08/04 03:40:55;;;;;;;1.35;0.80;;;;;;;;;;5055609;28;20179;-47
2023/08/04 03:43:20;;;;;;;0.73;0.73;;;;;;;;;;5047593;28;20616;-48
2023/08/04 03:45:46;;;;;;;1.05;0.90;;;;;;;;;;5056056;28;20191;-47
2023/08/04 03:48:12;;;;;;;3.67;1.10;;;;;;;;;;5047240;28;20187;-48
2023/08/04 03:50:38;;;;;;;4.13;1.02;;;;;;;;;;5053474;28;20198;-48
2023/08/04 03:53:04;;;;;;;1.58;0.88;;;;;;;;;;5055044;28;20183;-47
2023/08/04 03:55:30;;;;;;;2.50;0.80;;;;;;;;;;5052658;28;20296;-48
2023/08/04 03:57:56;;;;;;;1.55;0.88;;;;;;;;;;5055941;28;20179;-47
2023/08/04 04:00:22;;;;;;;6.90;1.10;;;;;;;;;;5055616;28;20183;-47
2023/08/04 04:02:49;;;;;;;1.58;0.88;;;;;;;;;;5048304;28;20262;-47
2023/08/04 04:05:23;;;;;;;2.60;0.80;;;;;;;;;;5055567;28;20266;-47
2023/08/04 04:07:49;;;;;;;3.30;0.88;;;;;;;;;;5042548;28;20191;-47
2023/08/04 04:10:15;;;;;;;5.22;1.13;;;;;;;;;;5054181;28;20184;-47
2023/08/04 04:12:41;;;;;;;2.38;1.23;;;;;;;;;;5050991;28;20385;-48
2023/08/04 04:15:07;;;;;;;0.98;0.82;;;;;;;;;;5052002;28;20236;-47
2023/08/04 04:17:33;;;;;;;1.98;0.95;;;;;;;;;;5055726;28;20186;-47
2023/08/04 04:19:59;;;;;;;2.47;1.00;;;;;;;;;;5055225;28;20167;-47
2023/08/04 04:22:25;;;;;;;4.15;0.82;;;;;;;;;;5047184;28;20237;-47
2023/08/04 04:24:51;;;;;;;1.35;0.80;;;;;;;;;;5044395;28;20237;-47
2023/08/04 04:27:17;;;;;;;2.25;0.90;;;;;;;;;;5055711;28;20187;-47
2023/08/04 04:29:43;;;;;;;2.33;0.93;;;;;;;;;;5054771;28;20187;-47
2023/08/04 04:32:09;;;;;;;1.52;0.80;;;;;;;;;;5054104;28;20205;-47
2023/08/04 04:34:35;;;;;;;2.10;0.90;;;;;;;;;;5051977;28;20527;-47
2023/08/04 04:37:01;;;;;;;2.00;0.90;;;;;;;;;;5044079;28;20187;-47
2023/08/04 04:39:27;;;;;;;1.38;0.90;;;;;;;;;;5035161;28;20270;-47
2023/08/04 04:41:53;;;;;;;3.10;0.90;;;;;;;;;;5037362;28;20185;-48
2023/08/04 04:44:19;;;;;;;0.90;0.82;;;;;;;;;;5044992;28;20187;-47
2023/08/04 04:46:44;;;;;;;2.35;0.70;;;;;;;;;;5042022;28;20514;-47
2023/08/04 04:49:10;;;;;;;2.08;0.60;;;;;;;;;;5052858;28;20602;-48
2023/08/04 04:51:36;;;;;;;3.38;0.85;;;;;;;;;;5056736;28;20199;-47
2023/08/04 04:54:02;;;;;;;1.02;0.80;;;;;;;;;;5039882;28;20617;-47
2023/08/04 04:56:28;;;;;;;0.82;0.80;;;;;;;;;;5051903;28;20527;-48
2023/08/04 04:58:54;;;;;;;2.17;0.80;;;;;;;;;;5054343;28;20198;-48
2023/08/04 05:01:20;;;;;;;1.42;0.60;;;;;;;;;;5042869;28;20270;-48
2023/08/04 05:03:46;;;;;;;0.90;0.80;;;;;;;;;;5045016;28;20191;-47
2023/08/04 05:06:12;;;;;;;1.15;0.70;;;;;;;;;;5043934;28;20179;-47
2023/08/04 05:08:38;;;;;;;1.10;0.80;;;;;;;;;;5036843;28;20198;-47
2023/08/04 05:11:04;;;;;;;2.63;0.85;;;;;;;;;;5055637;28;20213;-47
2023/08/04 05:13:30;;;;;;;1.55;0.93;;;;;;;;;;5053951;28;20179;-47
2023/08/04 05:15:56;;;;;;;0.93;0.82;;;;;;;;;;5054407;28;20217;-48
2023/08/04 05:18:21;;;;;;;1.40;0.90;;;;;;;;;;5036157;28;20184;-48
2023/08/04 05:20:48;;;;;;;1.55;0.77;;;;;;;;;;5045373;28;20194;-48
2023/08/04 05:23:14;;;;;;;1.65;0.55;;;;;;;;;;5053766;28;20266;-47
2023/08/04 05:25:40;;;;;;;1.55;0.88;;;;;;;;;;5053714;28;20191;-48
2023/08/04 05:28:23;;;;;;;0.73;0.73;;;;;;;;;;5054106;28;20195;-47
2023/08/04 05:30:49;;;;;;;2.50;0.90;;;;;;;;;;5040438;28;20885;-47
2023/08/04 05:33:15;;;;;;;0.65;0.65;;;;;;;;;;5043921;28;20183;-47
2023/08/04 05:35:44;;;;;;;2.45;0.98;;;;;;;;;;5054196;28;20181;-48
2023/08/04 05:38:10;;;;;;;0.70;0.60;;;;;;;;;;5046462;28;20180;-48
2023/08/04 05:40:36;;;;;;;0.90;0.70;;;;;;;;;;5033787;28;20539;-47
2023/08/04 05:43:04;;;;;;;2.45;1.08;;;;;;;;;;5043194;28;20553;-48
2023/08/04 05:45:34;;;;;;;0.95;0.80;;;;;;;;;;5034855;28;20195;-47
2023/08/04 05:48:00;;;;;;;1.00;0.90;;;;;;;;;;5042516;28;20558;-47
2023/08/04 05:50:27;;;;;;;2.03;1.00;;;;;;;;;;5052324;28;20197;-48
2023/08/04 05:52:53;;;;;;;2.17;0.73;;;;;;;;;;5051554;28;20210;-48
2023/08/04 05:55:20;;;;;;;0.95;0.90;;;;;;;;;;5035977;28;20234;-48
2023/08/04 05:57:46;;;;;;;0.73;0.73;;;;;;;;;;5049315;28;20187;-48
2023/08/04 06:00:12;;;;;;;1.30;0.80;;;;;;;;;;5038529;28;20195;-48
2023/08/04 06:02:41;;;;;;;2.22;1.20;;;;;;;;;;5040575;28;20443;-48
2023/08/04 06:05:07;;;;;;;2.50;0.90;;;;;;;;;;5053417;28;20270;-47
2023/08/04 06:07:33;;;;;;;1.13;1.00;;;;;;;;;;5042781;28;20187;-47
2023/08/04 06:09:59;;;;;;;2.97;1.33;;;;;;;;;;5058018;28;20293;-47
2023/08/04 06:12:25;;;;;;;1.95;1.00;;;;;;;;;;5049886;28;20206;-47
2023/08/04 06:14:51;;;;;;;4.15;1.08;;;;;;;;;;5040674;28;20478;-47
2023/08/04 06:17:17;;;;;;;1.67;1.00;;;;;;;;;;5057059;28;20646;-47
2023/08/04 06:19:46;;;;;;;3.17;1.40;;;;;;;;;;5049634;28;20179;-47
2023/08/04 06:22:15;;;;;;;6.22;1.05;;;;;;;;;;5055850;28;20226;-47
2023/08/04 06:24:41;;;;;;;2.03;1.00;;;;;;;;;;5039693;28;20191;-47
2023/08/04 06:27:07;;;;;;;4.43;1.13;;;;;;;;;;5057477;28;20179;-47
2023/08/04 06:29:33;;;;;;;5.03;1.08;;;;;;;;;;5057184;28;20244;-47
2023/08/04 06:31:59;;;;;;;2.80;1.15;;;;;;;;;;5055436;28;20202;-47
2023/08/04 06:34:25;;;;;;;1.60;1.00;;;;;;;;;;5041708;28;20582;-47
2023/08/04 06:36:51;;;;;;;2.05;1.00;;;;;;;;;;5037779;28;20185;-47
2023/08/04 06:39:18;;;;;;;1.80;1.00;;;;;;;;;;5046734;28;20191;-47
2023/08/04 06:41:44;;;;;;;2.38;1.13;;;;;;;;;;5039158;28;20183;-47
2023/08/04 06:44:10;;;;;;;2.20;1.13;;;;;;;;;;5050339;28;20559;-47
2023/08/04 06:46:35;;;;;;;1.88;0.95;;;;;;;;;;5038610;28;20183;-47
2023/08/04 06:49:01;;;;;;;3.53;1.30;;;;;;;;;;5048770;28;20191;-47
2023/08/04 06:51:27;;;;;;;1.95;1.13;;;;;;;;;;5055041;28;20229;-47
2023/08/04 06:53:53;;;;;;;3.42;1.00;;;;;;;;;;5056531;28;20560;-47
2023/08/04 06:56:19;;;;;;;2.33;0.82;;;;;;;;;;5042757;28;20480;-48
2023/08/04 06:58:45;;;;;;;1.80;1.10;;;;;;;;;;5048362;28;20237;-47
2023/08/04 07:01:11;;;;;;;1.33;0.90;;;;;;;;;;5038775;28;20318;-47
2023/08/04 07:03:37;;;;;;;3.03;0.90;;;;;;;;;;5039024;28;20190;-47
2023/08/04 07:06:03;;;;;;;1.35;1.02;;;;;;;;;;5044767;28;20187;-48
2023/08/04 07:08:29;;;;;;;2.13;1.20;;;;;;;;;;5051690;28;20267;-48
2023/08/04 07:10:55;;;;;;;3.65;1.15;;;;;;;;;;5055741;28;20237;-47
2023/08/04 07:13:21;;;;;;;4.03;1.00;;;;;;;;;;5056115;28;20183;-47
2023/08/04 07:15:59;;;;;;;5.78;1.10;;;;;;;;;;5051200;28;20179;-47
2023/08/04 07:18:25;;;;;;;2.88;1.10;;;;;;;;;;5042529;28;20175;-47
2023/08/04 07:20:52;;;;;;;3.75;1.02;;;;;;;;;;5055964;28;20189;-47
2023/08/04 07:23:17;;;;;;;1.10;1.00;;;;;;;;;;5056587;28;20210;-47
2023/08/04 07:25:43;;;;;;;1.23;1.00;;;;;;;;;;5056167;28;20239;-47
2023/08/04 07:28:09;;;;;;;1.17;1.08;;;;;;;;;;5055421;28;20198;-47
2023/08/04 07:30:39;;;;;;;2.83;1.10;;;;;;;;;;5055767;28;20191;-47
2023/08/04 07:33:08;;;;;;;2.42;1.08;;;;;;;;;;5050973;28;20199;-47
2023/08/04 07:35:34;;;;;;;1.35;1.25;;;;;;;;;;5044713;28;20180;-47
2023/08/04 07:38:00;;;;;;;2.83;1.00;;;;;;;;;;5043811;28;20175;-47
2023/08/04 07:40:26;;;;;;;3.00;1.20;;;;;;;;;;5056515;28;20559;-47
2023/08/04 07:42:52;;;;;;;11.68;1.60;;;;;;;;;;5052226;28;20180;-48
2023/08/04 07:45:18;;;;;;;2.17;1.40;;;;;;;;;;5036844;28;20180;-45
2023/08/04 07:47:44;;;;;;;6.20;1.30;;;;;;;;;;5041571;28;20460;-46
2023/08/04 07:50:10;;;;;;;3.15;1.20;;;;;;;;;;5056103;28;20214;-49
2023/08/04 07:52:36;;;;;;;3.40;1.40;;;;;;;;;;5054783;28;20242;-49
2023/08/04 07:55:02;;;;;;;3.83;1.20;;;;;;;;;;5056295;28;20225;-49
2023/08/04 07:57:28;;;;;;;2.97;1.50;;;;;;;;;;5055819;28;20186;-47
2023/08/04 07:59:54;;;;;;;4.57;1.30;;;;;;;;;;5053250;28;20559;-47
2023/08/04 08:02:20;;;;;;;2.15;1.02;;;;;;;;;;5049108;28;20195;-47
2023/08/04 08:04:46;;;;;;;3.05;1.17;;;;;;;;;;5044206;28;20187;-47
2023/08/04 08:07:11;;;;;;;3.78;1.25;;;;;;;;;;5048235;28;20175;-47
2023/08/04 08:09:37;;;;;;;1.67;1.50;;;;;;;;;;5055439;28;20191;-47
2023/08/04 08:12:03;;;;;;;3.25;1.30;;;;;;;;;;5055058;28;20654;-47
2023/08/04 08:14:29;;;;;;;2.17;1.25;;;;;;;;;;5039496;28;20187;-47
2023/08/04 08:16:55;;;;;;;2.42;1.27;;;;;;;;;;5042928;28;20190;-47
2023/08/04 08:19:21;;;;;;;3.45;1.50;;;;;;;;;;5051559;28;20225;-47
2023/08/04 08:21:47;;;;;;;1.27;1.20;;;;;;;;;;5052420;28;20202;-47
2023/08/04 08:24:13;;;;;;;1.20;1.10;;;;;;;;;;5038080;28;20555;-47
2023/08/04 08:26:39;;;;;;;2.47;1.33;;;;;;;;;;5047777;28;20274;-47
2023/08/04 08:29:06;;;;;;;2.20;1.30;;;;;;;;;;5055380;28;20218;-47
2023/08/04 08:31:32;;;;;;;1.40;1.30;;;;;;;;;;5053689;28;20207;-47
2023/08/04 08:33:58;;;;;;;1.75;1.20;;;;;;;;;;5043847;28;20598;-47
2023/08/04 08:36:25;;;;;;;2.40;1.10;;;;;;;;;;5051479;28;20258;-47
2023/08/04 08:38:51;;;;;;;2.25;1.00;;;;;;;;;;5055177;28;20207;-47
2023/08/04 08:41:17;;;;;;;2.08;1.25;;;;;;;;;;5048940;28;20215;-47
2023/08/04 08:43:44;;;;;;;3.13;1.27;;;;;;;;;;5046872;28;20240;-47
2023/08/04 08:46:10;;;;;;;1.40;1.20;;;;;;;;;;5055419;28;20237;-47
2023/08/04 08:48:37;;;;;;;1.20;1.00;;;;;;;;;;5055000;28;20202;-47
2023/08/04 08:51:05;;;;;;;2.45;1.17;;;;;;;;;;5054614;28;20207;-47
2023/08/04 08:53:31;;;;;;;1.30;1.20;;;;;;;;;;5051187;28;20576;-47
2023/08/04 08:56:00;;;;;;;1.25;1.15;;;;;;;;;;5053718;28;20192;-47
2023/08/04 08:58:27;;;;;;;2.90;1.30;;;;;;;;;;5054150;28;20301;-47
2023/08/04 09:00:53;;;;;;;1.67;1.30;;;;;;;;;;5054054;28;20183;-47
2023/08/04 09:03:19;;;;;;;1.77;1.27;;;;;;;;;;5048085;28;20287;-47
2023/08/04 09:05:45;;;;;;;2.13;1.25;;;;;;;;;;5053801;28;20595;-47
2023/08/04 09:08:11;;;;;;;5.40;1.27;;;;;;;;;;5034759;28;20267;-47
2023/08/04 09:10:38;;;;;;;1.67;1.15;;;;;;;;;;5040715;28;20171;-47
2023/08/04 09:13:07;;;;;;;1.40;1.25;;;;;;;;;;5043218;28;20191;-47
2023/08/04 09:15:34;;;;;;;4.18;1.33;;;;;;;;;;5055052;28;20597;-47
2023/08/04 09:18:00;;;;;;;1.38;1.25;;;;;;;;;;5054581;28;20167;-47
2023/08/04 09:20:27;;;;;;;1.70;1.30;;;;;;;;;;5054580;28;20190;-47
2023/08/04 09:22:54;;;;;;;2.95;1.40;;;;;;;;;;5053407;28;20203;-47
2023/08/04 09:25:20;;;;;;;1.70;1.23;;;;;;;;;;5048687;28;20180;-47
2023/08/04 09:27:49;;;;;;;1.75;1.20;;;;;;;;;;5034881;28;20184;-47
2023/08/04 09:30:16;;;;;;;2.00;1.45;;;;;;;;;;5034067;28;20184;-47
2023/08/04 09:32:43;;;;;;;1.85;1.27;;;;;;;;;;5040785;28;20494;-47
2023/08/04 09:35:09;;;;;;;1.10;1.00;;;;;;;;;;5054342;28;20171;-47
2023/08/04 09:37:36;;;;;;;1.98;1.20;;;;;;;;;;5041122;28;20187;-47
2023/08/04 09:40:04;;;;;;;1.83;1.20;;;;;;;;;;5048268;28;20179;-47
2023/08/04 09:42:30;;;;;;;1.00;1.00;;;;;;;;;;5053998;28;20175;-47
2023/08/04 09:44:56;;;;;;;1.20;1.20;;;;;;;;;;5054352;28;20245;-47
2023/08/04 09:47:26;;;;;;;1.08;0.98;;;;;;;;;;5054605;28;20189;-48
2023/08/04 09:49:52;;;;;;;1.48;1.23;;;;;;;;;;5045375;28;20183;-48
2023/08/04 09:52:22;;;;;;;2.88;1.00;;;;;;;;;;5053873;28;20207;-48
2023/08/04 09:54:48;;;;;;;1.33;1.20;;;;;;;;;;5036466;28;20207;-47
2023/08/04 09:57:14;;;;;;;1.00;0.90;;;;;;;;;;5039700;28;20225;-47
2023/08/04 09:59:41;;;;;;;1.17;0.90;;;;;;;;;;5054500;28;20175;-47
2023/08/04 10:02:07;;;;;;;1.05;1.05;;;;;;;;;;5050152;28;20184;-47
2023/08/04 10:04:33;;;;;;;1.00;1.00;;;;;;;;;;5039650;28;20210;-47
2023/08/04 10:07:00;;;;;;;1.00;1.00;;;;;;;;;;5051304;28;20175;-47
2023/08/04 10:09:26;;;;;;;1.88;1.10;;;;;;;;;;5054142;28;20241;-47
2023/08/04 10:11:53;;;;;;;1.38;1.27;;;;;;;;;;5035984;28;20211;-47
2023/08/04 10:14:19;;;;;;;1.52;1.10;;;;;;;;;;5041021;28;20184;-47
2023/08/04 10:16:45;;;;;;;1.40;1.30;;;;;;;;;;5052638;28;20550;-47
2023/08/04 10:19:12;;;;;;;1.48;1.13;;;;;;;;;;5051069;28;20195;-47
2023/08/04 10:21:39;;;;;;;2.10;1.00;;;;;;;;;;5052190;28;20578;-47
2023/08/04 10:24:06;;;;;;;0.90;0.90;;;;;;;;;;5044795;28;20195;-47
2023/08/04 10:26:33;;;;;;;1.30;1.20;;;;;;;;;;5054342;28;20441;-47
2023/08/04 10:29:02;;;;;;;5.18;1.63;;;;;;;;;;5053294;28;20207;-51
2023/08/04 10:31:46;;;;;;;1.67;1.10;;;;;;;;;;5047385;28;20202;-50
2023/08/04 10:34:15;;;;;;;3.08;1.23;;;;;;;;;;5053278;28;20186;-50
2023/08/04 10:37:14;;;;;;;2.22;1.00;;;;;;;;;;5034344;28;20180;-51
2023/08/04 10:39:57;;;;;;;4.18;1.50;;;;;;;;;;5027370;28;20638;-50
2023/08/04 10:42:30;;;;;;;4.22;1.73;;;;;;;;;;5046134;28;20195;-50
2023/08/04 10:44:56;;;;;;;7.50;2.10;;;;;;;;;;5035031;28;20455;-50
2023/08/04 10:47:33;;;;;;;7.07;2.25;;;;;;;;;;5036677;28;20183;-50
2023/08/04 10:49:59;;;;;;;6.60;2.13;;;;;;;;;;5051572;28;20206;-49
2023/08/04 10:52:25;;;;;;;6.20;1.70;;;;;;;;;;5056811;28;20187;-49
2023/08/04 10:54:52;;;;;;;3.80;1.38;;;;;;;;;;5055077;28;20198;-49
2023/08/04 10:57:19;;;;;;;5.22;1.92;;;;;;;;;;5057697;28;20171;-50
2023/08/04 10:59:45;;;;;;;2.90;1.25;;;;;;;;;;5056854;28;20262;-50
2023/08/04 11:02:11;;;;;;;2.13;1.30;;;;;;;;;;5053148;28;20591;-49
2023/08/04 11:04:37;;;;;;;2.65;1.10;;;;;;;;;;5048977;28;20183;-49
2023/08/04 11:07:03;;;;;;;1.60;1.02;;;;;;;;;;5055072;28;20274;-49
2023/08/04 11:09:29;;;;;;;0.63;0.60;;;;;;;;;;5044863;28;20226;-50
2023/08/04 11:11:55;;;;;;;1.10;0.85;;;;;;;;;;5056668;28;20565;-50
2023/08/04 11:14:21;;;;;;;0.80;0.70;;;;;;;;;;5057104;28;20448;-50
2023/08/04 11:16:49;;;;;;;3.00;0.85;;;;;;;;;;5057345;28;20201;-50
2023/08/04 11:19:19;;;;;;;0.80;0.70;;;;;;;;;;5055315;28;20632;-50
2023/08/04 11:21:45;;;;;;;2.03;0.55;;;;;;;;;;5051992;28;20199;-50
2023/08/04 11:24:11;;;;;;;0.70;0.70;;;;;;;;;;5053810;28;20233;-50
2023/08/04 11:26:37;;;;;;;3.03;0.98;;;;;;;;;;5042701;28;20267;-50
2023/08/04 11:29:04;;;;;;;2.35;0.90;;;;;;;;;;5049821;28;20310;-50
2023/08/04 11:31:33;;;;;;;2.35;0.70;;;;;;;;;;5055604;28;20191;-50
2023/08/04 11:33:59;;;;;;;2.65;0.70;;;;;;;;;;5048747;28;20245;-50
2023/08/04 11:36:24;;;;;;;1.80;0.80;;;;;;;;;;5056472;28;20241;-50
2023/08/04 11:38:50;;;;;;;1.73;0.50;;;;;;;;;;5056415;28;20179;-50
2023/08/04 11:41:17;;;;;;;2.90;0.82;;;;;;;;;;5055731;28;20179;-50
2023/08/04 11:43:43;;;;;;;2.80;1.00;;;;;;;;;;5056389;28;20449;-50
2023/08/04 11:46:09;;;;;;;3.03;1.20;;;;;;;;;;5048946;28;20190;-50
2023/08/04 11:48:35;;;;;;;3.88;1.00;;;;;;;;;;5056413;28;20187;-50
2023/08/04 11:51:02;;;;;;;2.40;0.90;;;;;;;;;;5055252;28;20213;-50
2023/08/04 11:53:28;;;;;;;4.18;0.88;;;;;;;;;;5056161;28;20429;-50
2023/08/04 11:55:55;;;;;;;4.68;1.05;;;;;;;;;;5040390;28;20238;-50
2023/08/04 11:58:31;;;;;;;3.45;0.80;;;;;;;;;;5047843;28;20267;-50
2023/08/04 12:00:57;;;;;;;2.22;0.88;;;;;;;;;;5054649;28;20171;-50
2023/08/04 12:03:23;;;;;;;2.53;0.77;;;;;;;;;;5056035;28;20182;-50
2023/08/04 12:05:50;;;;;;;3.15;0.77;;;;;;;;;;5056055;28;20269;-50
2023/08/04 12:08:16;;;;;;;1.40;0.70;;;;;;;;;;5047254;28;20536;-50
2023/08/04 12:10:42;;;;;;;1.25;0.80;;;;;;;;;;5055244;28;20430;-50
2023/08/04 12:13:08;;;;;;;2.25;0.80;;;;;;;;;;5054775;28;20203;-50
2023/08/04 12:15:54;;;;;;;2.00;0.82;;;;;;;;;;5055803;28;20508;-50
2023/08/04 12:18:24;;;;;;;1.52;0.70;;;;;;;;;;5055395;28;20202;-50
2023/08/04 12:20:50;;;;;;;0.85;0.70;;;;;;;;;;5055327;28;20179;-50
2023/08/04 12:23:16;;;;;;;0.75;0.68;;;;;;;;;;5046903;28;20230;-50
2023/08/04 12:25:41;;;;;;;2.67;0.85;;;;;;;;;;5040816;28;20225;-51
2023/08/04 12:28:07;;;;;;;0.43;0.40;;;;;;;;;;5055378;28;20187;-50
2023/08/04 12:30:33;;;;;;;1.42;0.70;;;;;;;;;;5055342;28;20317;-50
2023/08/04 12:32:59;;;;;;;0.90;0.73;;;;;;;;;;5043786;28;20519;-51
2023/08/04 12:35:25;;;;;;;0.90;0.55;;;;;;;;;;5044959;28;20613;-50
2023/08/04 12:37:51;;;;;;;1.08;0.80;;;;;;;;;;5050512;28;20258;-51
2023/08/04 12:40:17;;;;;;;1.15;0.80;;;;;;;;;;5052008;28;20184;-50
2023/08/04 12:42:43;;;;;;;0.82;0.80;;;;;;;;;;5037256;28;20175;-50
2023/08/04 12:45:09;;;;;;;1.45;0.93;;;;;;;;;;5037073;28;20195;-50
2023/08/04 12:47:35;;;;;;;1.40;0.80;;;;;;;;;;5055250;28;20187;-50
2023/08/04 12:50:01;;;;;;;1.02;0.70;;;;;;;;;;5054598;28;20589;-50
2023/08/04 12:52:27;;;;;;;1.23;0.68;;;;;;;;;;5054726;28;20225;-51
2023/08/04 12:54:53;;;;;;;1.63;0.68;;;;;;;;;;5050201;28;20167;-50
2023/08/04 12:57:18;;;;;;;0.63;0.60;;;;;;;;;;5055006;28;20210;-50
2023/08/04 12:59:44;;;;;;;0.88;0.77;;;;;;;;;;5048591;28;20176;-50
2023/08/04 13:02:10;;;;;;;0.80;0.80;;;;;;;;;;5045017;28;20478;-50
2023/08/04 13:04:36;;;;;;;1.05;0.60;;;;;;;;;;5043671;28;20183;-50
2023/08/04 13:07:02;;;;;;;0.60;0.60;;;;;;;;;;5035338;28;20221;-50
2023/08/04 13:09:28;;;;;;;0.82;0.82;;;;;;;;;;5036999;28;20218;-50
2023/08/04 13:11:54;;;;;;;0.95;0.70;;;;;;;;;;5054496;28;20238;-50
2023/08/04 13:14:20;;;;;;;1.80;0.75;;;;;;;;;;5035357;28;20226;-50
2023/08/04 13:16:46;;;;;;;0.50;0.50;;;;;;;;;;5035072;28;20447;-51
2023/08/04 13:19:12;;;;;;;1.10;0.60;;;;;;;;;;5035907;28;20176;-51
2023/08/04 13:21:38;;;;;;;1.05;0.80;;;;;;;;;;5054153;28;20203;-50
2023/08/04 13:24:04;;;;;;;3.17;0.80;;;;;;;;;;5055033;28;20429;-50
2023/08/04 13:26:30;;;;;;;0.80;0.80;;;;;;;;;;5054782;28;20517;-50
2023/08/04 13:28:56;;;;;;;1.42;0.77;;;;;;;;;;5054559;28;20214;-50
2023/08/04 13:31:22;;;;;;;0.77;0.63;;;;;;;;;;5053592;28;20246;-50
2023/08/04 13:33:49;;;;;;;0.73;0.70;;;;;;;;;;5047808;28;20615;-50
2023/08/04 13:36:15;;;;;;;2.15;0.80;;;;;;;;;;5035633;28;20184;-50
2023/08/04 13:38:42;;;;;;;0.60;0.60;;;;;;;;;;5043236;28;20201;-50
2023/08/04 13:41:08;;;;;;;0.70;0.70;;;;;;;;;;5053831;28;20241;-50
2023/08/04 13:43:34;;;;;;;1.55;0.73;;;;;;;;;;5041785;28;20571;-50
2023/08/04 13:46:01;;;;;;;1.15;0.70;;;;;;;;;;5038050;28;20544;-50
2023/08/04 13:48:27;;;;;;;0.70;0.70;;;;;;;;;;5054327;28;20186;-50
2023/08/04 13:50:52;;;;;;;1.10;0.85;;;;;;;;;;5053905;28;20222;-50
2023/08/04 13:53:18;;;;;;;0.90;0.60;;;;;;;;;;5063744;28;20265;-50
2023/08/04 13:55:44;;;;;;;0.80;0.80;;;;;;;;;;5053119;28;20253;-50
2023/08/04 13:58:10;;;;;;;0.98;0.68;;;;;;;;;;5052820;28;20269;-50
2023/08/04 14:00:36;;;;;;;2.65;0.70;;;;;;;;;;5053805;28;20187;-54
2023/08/04 14:03:02;;;;;;;1.13;0.70;;;;;;;;;;5036040;28;20179;-50
2023/08/04 14:05:28;;;;;;;2.67;0.75;;;;;;;;;;5043515;28;20258;-50
2023/08/04 14:07:54;;;;;;;0.70;0.60;;;;;;;;;;5038958;28;20572;-50
2023/08/04 14:10:21;;;;;;;0.98;0.80;;;;;;;;;;5052760;28;20211;-50
2023/08/04 14:12:47;;;;;;;1.60;0.80;;;;;;;;;;5053815;28;20205;-50
2023/08/04 14:15:13;;;;;;;0.70;0.70;;;;;;;;;;5053035;28;20183;-51
2023/08/04 14:17:39;;;;;;;0.82;0.70;;;;;;;;;;5040656;28;20179;-50
2023/08/04 14:20:05;;;;;;;0.50;0.50;;;;;;;;;;5048046;28;20179;-50
2023/08/04 14:22:31;;;;;;;0.70;0.70;;;;;;;;;;5038759;28;20489;-50
2023/08/04 14:24:58;;;;;;;0.65;0.65;;;;;;;;;;5056402;28;20190;-50
2023/08/04 14:27:24;;;;;;;0.50;0.50;;;;;;;;;;5039292;28;20287;-50
2023/08/04 14:29:50;;;;;;;0.80;0.80;;;;;;;;;;5045183;28;20190;-50
2023/08/04 14:32:16;;;;;;;0.80;0.80;;;;;;;;;;5056958;28;20202;-51
2023/08/04 14:34:41;;;;;;;0.77;0.77;;;;;;;;;;5044987;28;20187;-50
2023/08/04 14:37:07;;;;;;;1.38;0.70;;;;;;;;;;5050223;28;20201;-50
2023/08/04 14:39:33;;;;;;;1.02;0.70;;;;;;;;;;5057575;28;20189;-50